sensor_id;sensor_type;location;lat;lon;timestamp;pressure;altitude;pressure_sealevel;temperature;humidity
8298;BME280;4187;42.778;23.242;2023-02-26T00:01:28;94170.84;;;13.99;85.15
8298;BME280;4187;42.778;23.242;2023-02-26T00:03:56;94167.59;;;14.03;84.91
8298;BME280;4187;42.778;23.242;2023-02-26T00:06:24;94171.06;;;14.04;84.58
8298;BME280;4187;42.778;23.242;2023-02-26T00:08:51;94161.06;;;13.99;85.20
8298;BME280;4187;42.778;23.242;2023-02-26T00:11:18;94161.22;;;13.98;84.59
8298;BME280;4187;42.778;23.242;2023-02-26T00:13:45;94161.88;;;14.00;83.30
8298;BME280;4187;42.778;23.242;2023-02-26T00:16:22;94177.66;;;14.08;84.00
8298;BME280;4187;42.778;23.242;2023-02-26T00:18:53;94155.00;;;14.05;83.80
8298;BME280;4187;42.778;23.242;2023-02-26T00:21:21;94157.00;;;14.03;84.52
8298;BME280;4187;42.778;23.242;2023-02-26T00:23:48;94150.88;;;14.03;84.53
8298;BME280;4187;42.778;23.242;2023-02-26T00:26:15;94140.47;;;14.01;84.42
8298;BME280;4187;42.778;23.242;2023-02-26T00:28:42;94144.69;;;13.96;84.71
8298;BME280;4187;42.778;23.242;2023-02-26T00:31:10;94147.97;;;13.98;84.73
8298;BME280;4187;42.778;23.242;2023-02-26T00:33:37;94102.25;;;13.68;84.90
8298;BME280;4187;42.778;23.242;2023-02-26T00:36:20;94139.97;;;13.91;85.18
8298;BME280;4187;42.778;23.242;2023-02-26T00:38:58;94124.06;;;13.91;84.55
8298;BME280;4187;42.778;23.242;2023-02-26T00:41:28;94123.63;;;13.88;85.25
8298;BME280;4187;42.778;23.242;2023-02-26T00:43:55;94125.66;;;13.86;85.55
8298;BME280;4187;42.778;23.242;2023-02-26T00:46:28;94115.00;;;13.79;85.98
8298;BME280;4187;42.778;23.242;2023-02-26T00:49:02;94108.25;;;13.76;85.06
8298;BME280;4187;42.778;23.242;2023-02-26T00:51:42;94114.19;;;13.78;84.87
8298;BME280;4187;42.778;23.242;2023-02-26T00:54:17;94117.69;;;13.86;84.70
8298;BME280;4187;42.778;23.242;2023-02-26T00:56:44;94115.22;;;13.84;83.76
8298;BME280;4187;42.778;23.242;2023-02-26T00:59:11;94119.16;;;13.88;83.60
8298;BME280;4187;42.778;23.242;2023-02-26T01:01:38;94115.00;;;13.79;83.79
8298;BME280;4187;42.778;23.242;2023-02-26T01:04:06;94124.38;;;13.82;82.97
8298;BME280;4187;42.778;23.242;2023-02-26T01:06:37;94122.88;;;13.94;82.39
8298;BME280;4187;42.778;23.242;2023-02-26T01:09:12;94112.03;;;13.89;82.36
8298;BME280;4187;42.778;23.242;2023-02-26T01:11:41;94113.22;;;13.86;82.52
8298;BME280;4187;42.778;23.242;2023-02-26T01:14:09;94099.75;;;13.88;82.15
8298;BME280;4187;42.778;23.242;2023-02-26T01:16:42;94104.88;;;13.89;82.53
8298;BME280;4187;42.778;23.242;2023-02-26T01:19:17;94101.16;;;13.84;82.07
8298;BME280;4187;42.778;23.242;2023-02-26T01:21:50;94100.53;;;13.82;81.63
8298;BME280;4187;42.778;23.242;2023-02-26T01:24:22;94090.75;;;13.82;82.00
8298;BME280;4187;42.778;23.242;2023-02-26T01:26:51;94102.31;;;14.02;80.08
8298;BME280;4187;42.778;23.242;2023-02-26T01:29:19;94101.69;;;14.00;80.36
8298;BME280;4187;42.778;23.242;2023-02-26T01:31:49;94081.25;;;13.94;80.60
8298;BME280;4187;42.778;23.242;2023-02-26T01:34:23;94090.22;;;13.93;80.94
8298;BME280;4187;42.778;23.242;2023-02-26T01:36:59;94061.34;;;13.77;80.80
8298;BME280;4187;42.778;23.242;2023-02-26T01:39:35;94046.03;;;13.79;80.94
8298;BME280;4187;42.778;23.242;2023-02-26T01:42:11;94062.91;;;13.99;80.11
8298;BME280;4187;42.778;23.242;2023-02-26T01:44:43;94064.56;;;14.00;80.36
8298;BME280;4187;42.778;23.242;2023-02-26T01:47:17;94059.44;;;13.99;79.83
8298;BME280;4187;42.778;23.242;2023-02-26T01:49:46;94065.81;;;14.04;79.81
8298;BME280;4187;42.778;23.242;2023-02-26T01:55:29;94064.56;;;14.00;79.45
8298;BME280;4187;42.778;23.242;2023-02-26T01:57:57;94064.31;;;13.95;79.51
8298;BME280;4187;42.778;23.242;2023-02-26T02:00:26;94059.81;;;13.96;79.91
8298;BME280;4187;42.778;23.242;2023-02-26T02:02:54;94054.13;;;13.99;78.72
8298;BME280;4187;42.778;23.242;2023-02-26T02:05:24;94060.28;;;13.99;78.90
8298;BME280;4187;42.778;23.242;2023-02-26T02:07:54;94055.13;;;13.98;78.81
8298;BME280;4187;42.778;23.242;2023-02-26T02:10:22;94038.31;;;13.84;78.69
8298;BME280;4187;42.778;23.242;2023-02-26T02:12:54;94069.44;;;13.97;76.95
8298;BME280;4187;42.778;23.242;2023-02-26T02:15:29;94061.09;;;14.00;77.12
8298;BME280;4187;42.778;23.242;2023-02-26T02:18:05;94037.16;;;13.93;76.71
8298;BME280;4187;42.778;23.242;2023-02-26T02:21:07;94043.97;;;14.02;77.67
8298;BME280;4187;42.778;23.242;2023-02-26T02:23:44;94050.28;;;14.01;77.23
8298;BME280;4187;42.778;23.242;2023-02-26T02:26:37;94051.69;;;13.97;78.07
8298;BME280;4187;42.778;23.242;2023-02-26T02:32:05;94059.41;;;13.92;78.20
8298;BME280;4187;42.778;23.242;2023-02-26T02:34:37;94053.13;;;14.00;77.33
8298;BME280;4187;42.778;23.242;2023-02-26T02:37:11;94058.63;;;13.98;77.70
8298;BME280;4187;42.778;23.242;2023-02-26T02:39:42;94051.47;;;13.99;78.27
8298;BME280;4187;42.778;23.242;2023-02-26T02:42:19;94086.56;;;13.94;78.13
8298;BME280;4187;42.778;23.242;2023-02-26T02:44:54;94086.34;;;13.96;77.58
8298;BME280;4187;42.778;23.242;2023-02-26T02:47:25;94093.69;;;13.94;78.32
8298;BME280;4187;42.778;23.242;2023-02-26T02:49:58;94085.94;;;13.92;77.90
8298;BME280;4187;42.778;23.242;2023-02-26T02:52:32;94083.06;;;13.94;77.95
8298;BME280;4187;42.778;23.242;2023-02-26T02:55:04;94091.28;;;13.99;77.15
8298;BME280;4187;42.778;23.242;2023-02-26T02:57:35;94088.44;;;14.00;76.75
8298;BME280;4187;42.778;23.242;2023-02-26T03:00:06;94095.75;;;13.98;76.77
8298;BME280;4187;42.778;23.242;2023-02-26T03:02:44;94079.84;;;13.98;76.96
8298;BME280;4187;42.778;23.242;2023-02-26T03:05:13;94093.09;;;13.98;77.12
8298;BME280;4187;42.778;23.242;2023-02-26T03:07:45;94082.25;;;13.93;77.01
8298;BME280;4187;42.778;23.242;2023-02-26T03:10:13;94095.72;;;13.92;77.30
8298;BME280;4187;42.778;23.242;2023-02-26T03:12:40;94084.28;;;13.91;76.73
8298;BME280;4187;42.778;23.242;2023-02-26T03:15:07;94077.53;;;13.89;76.81
8298;BME280;4187;42.778;23.242;2023-02-26T03:17:45;94088.59;;;13.92;75.12
8298;BME280;4187;42.778;23.242;2023-02-26T03:20:20;94068.75;;;13.88;75.54
8298;BME280;4187;42.778;23.242;2023-02-26T03:22:57;94087.63;;;14.00;75.99
8298;BME280;4187;42.778;23.242;2023-02-26T03:25:29;94100.06;;;14.06;73.96
8298;BME280;4187;42.778;23.242;2023-02-26T03:28:06;94073.38;;;14.07;73.19
8298;BME280;4187;42.778;23.242;2023-02-26T03:30:37;94068.28;;;14.12;73.42
8298;BME280;4187;42.778;23.242;2023-02-26T03:33:11;94075.25;;;14.13;73.17
8298;BME280;4187;42.778;23.242;2023-02-26T03:35:46;94071.38;;;14.16;72.63
8298;BME280;4187;42.778;23.242;2023-02-26T03:38:20;94062.84;;;14.20;73.06
8298;BME280;4187;42.778;23.242;2023-02-26T03:40:53;94069.50;;;14.10;73.61
8298;BME280;4187;42.778;23.242;2023-02-26T03:43:24;94060.88;;;14.01;73.85
8298;BME280;4187;42.778;23.242;2023-02-26T03:45:58;94072.38;;;14.08;74.05
8298;BME280;4187;42.778;23.242;2023-02-26T03:48:30;94064.81;;;14.05;73.59
8298;BME280;4187;42.778;23.242;2023-02-26T03:51:02;94073.59;;;14.12;73.48
8298;BME280;4187;42.778;23.242;2023-02-26T03:53:33;94062.00;;;14.13;72.68
8298;BME280;4187;42.778;23.242;2023-02-26T03:56:05;94066.66;;;14.11;72.63
8298;BME280;4187;42.778;23.242;2023-02-26T03:58:33;94055.41;;;14.09;73.24
8298;BME280;4187;42.778;23.242;2023-02-26T04:01:03;94049.78;;;14.19;71.89
8298;BME280;4187;42.778;23.242;2023-02-26T04:03:36;94033.38;;;14.09;72.46
8298;BME280;4187;42.778;23.242;2023-02-26T04:06:06;94058.72;;;14.18;72.93
8298;BME280;4187;42.778;23.242;2023-02-26T04:08:33;94046.47;;;14.17;72.21
8298;BME280;4187;42.778;23.242;2023-02-26T04:11:05;94057.34;;;14.28;71.65
8298;BME280;4187;42.778;23.242;2023-02-26T04:13:32;94059.44;;;14.33;71.50
8298;BME280;4187;42.778;23.242;2023-02-26T04:15:59;94052.06;;;14.28;71.69
8298;BME280;4187;42.778;23.242;2023-02-26T04:18:26;94058.78;;;14.24;72.33
8298;BME280;4187;42.778;23.242;2023-02-26T04:20:54;94039.34;;;14.17;73.50
8298;BME280;4187;42.778;23.242;2023-02-26T04:23:21;94032.81;;;14.13;74.99
8298;BME280;4187;42.778;23.242;2023-02-26T04:25:48;94038.72;;;14.15;74.39
8298;BME280;4187;42.778;23.242;2023-02-26T04:28:15;94024.47;;;14.16;73.89
8298;BME280;4187;42.778;23.242;2023-02-26T04:30:43;94012.53;;;14.06;74.22
8298;BME280;4187;42.778;23.242;2023-02-26T04:33:09;94028.34;;;14.20;74.75
8298;BME280;4187;42.778;23.242;2023-02-26T04:35:36;94030.78;;;14.15;75.46
8298;BME280;4187;42.778;23.242;2023-02-26T04:38:04;94036.69;;;14.17;75.14
8298;BME280;4187;42.778;23.242;2023-02-26T04:40:31;94008.81;;;13.94;75.33
8298;BME280;4187;42.778;23.242;2023-02-26T04:42:58;94040.13;;;14.11;75.79
8298;BME280;4187;42.778;23.242;2023-02-26T04:45:25;94028.28;;;14.07;76.22
8298;BME280;4187;42.778;23.242;2023-02-26T04:47:52;94026.25;;;14.09;75.93
8298;BME280;4187;42.778;23.242;2023-02-26T04:50:19;94017.22;;;14.04;75.57
8298;BME280;4187;42.778;23.242;2023-02-26T04:52:45;94020.72;;;14.04;75.52
8298;BME280;4187;42.778;23.242;2023-02-26T04:55:14;94014.97;;;14.01;75.66
8298;BME280;4187;42.778;23.242;2023-02-26T04:57:40;94010.72;;;14.06;75.01
8298;BME280;4187;42.778;23.242;2023-02-26T05:00:08;94007.22;;;13.99;74.78
8298;BME280;4187;42.778;23.242;2023-02-26T05:02:35;94009.72;;;14.07;75.49
8298;BME280;4187;42.778;23.242;2023-02-26T05:05:02;94010.72;;;14.06;74.26
8298;BME280;4187;42.778;23.242;2023-02-26T05:07:29;93962.63;;;13.82;74.75
8298;BME280;4187;42.778;23.242;2023-02-26T05:09:56;93983.56;;;14.04;74.88
8298;BME280;4187;42.778;23.242;2023-02-26T05:12:24;93983.53;;;13.98;73.36
8298;BME280;4187;42.778;23.242;2023-02-26T05:14:51;93998.72;;;14.10;73.16
8298;BME280;4187;42.778;23.242;2023-02-26T05:17:18;93987.50;;;14.15;73.06
8298;BME280;4187;42.778;23.242;2023-02-26T05:19:45;93990.16;;;14.15;72.48
8298;BME280;4187;42.778;23.242;2023-02-26T05:22:12;93992.19;;;14.19;72.36
8298;BME280;4187;42.778;23.242;2023-02-26T05:24:38;93985.72;;;14.22;72.30
8298;BME280;4187;42.778;23.242;2023-02-26T05:27:05;93999.19;;;14.27;71.30
8298;BME280;4187;42.778;23.242;2023-02-26T05:29:33;93992.03;;;14.27;71.54
8298;BME280;4187;42.778;23.242;2023-02-26T05:32:01;93988.34;;;14.22;71.31
8298;BME280;4187;42.778;23.242;2023-02-26T05:34:28;94010.00;;;14.25;71.26
8298;BME280;4187;42.778;23.242;2023-02-26T05:36:54;93992.44;;;14.24;70.82
8298;BME280;4187;42.778;23.242;2023-02-26T05:39:21;93937.44;;;13.92;70.88
8298;BME280;4187;42.778;23.242;2023-02-26T05:41:48;93989.38;;;14.27;70.37
8298;BME280;4187;42.778;23.242;2023-02-26T05:44:16;93999.66;;;14.37;70.38
8298;BME280;4187;42.778;23.242;2023-02-26T05:46:44;93983.06;;;14.28;69.97
8298;BME280;4187;42.778;23.242;2023-02-26T05:49:11;93990.69;;;14.38;69.84
8298;BME280;4187;42.778;23.242;2023-02-26T05:51:38;93978.56;;;14.29;69.83
8298;BME280;4187;42.778;23.242;2023-02-26T05:54:07;93993.75;;;14.35;70.22
8298;BME280;4187;42.778;23.242;2023-02-26T05:56:34;93999.28;;;14.40;69.45
8298;BME280;4187;42.778;23.242;2023-02-26T05:59:00;93981.31;;;14.42;69.48
8298;BME280;4187;42.778;23.242;2023-02-26T06:01:27;93990.09;;;14.43;69.53
8298;BME280;4187;42.778;23.242;2023-02-26T06:03:55;93994.78;;;14.47;69.20
8298;BME280;4187;42.778;23.242;2023-02-26T06:06:22;93995.00;;;14.52;68.44
8298;BME280;4187;42.778;23.242;2023-02-26T06:08:51;93985.81;;;14.55;68.78
8298;BME280;4187;42.778;23.242;2023-02-26T06:11:18;94021.19;;;14.62;67.34
8298;BME280;4187;42.778;23.242;2023-02-26T06:13:44;93978.28;;;14.58;66.41
8298;BME280;4187;42.778;23.242;2023-02-26T06:16:11;94026.53;;;14.75;66.33
8298;BME280;4187;42.778;23.242;2023-02-26T06:18:38;93999.78;;;14.83;65.67
8298;BME280;4187;42.778;23.242;2023-02-26T06:21:06;93976.91;;;14.75;65.72
8298;BME280;4187;42.778;23.242;2023-02-26T06:23:33;94009.00;;;14.93;64.74
8298;BME280;4187;42.778;23.242;2023-02-26T06:26:00;94015.38;;;15.06;63.74
8298;BME280;4187;42.778;23.242;2023-02-26T06:28:27;94014.75;;;15.10;63.11
8298;BME280;4187;42.778;23.242;2023-02-26T06:30:54;94000.44;;;15.11;62.62
8298;BME280;4187;42.778;23.242;2023-02-26T06:33:21;94025.59;;;15.28;62.29
8298;BME280;4187;42.778;23.242;2023-02-26T06:35:49;94001.25;;;15.18;61.78
8298;BME280;4187;42.778;23.242;2023-02-26T06:38:17;93990.84;;;15.23;61.59
8298;BME280;4187;42.778;23.242;2023-02-26T06:40:46;93979.19;;;15.24;61.72
8298;BME280;4187;42.778;23.242;2023-02-26T06:43:13;94017.63;;;15.41;61.30
8298;BME280;4187;42.778;23.242;2023-02-26T06:45:40;93999.81;;;15.42;61.23
8298;BME280;4187;42.778;23.242;2023-02-26T06:48:06;93989.81;;;15.44;60.10
8298;BME280;4187;42.778;23.242;2023-02-26T06:50:33;93996.78;;;15.65;58.96
8298;BME280;4187;42.778;23.242;2023-02-26T06:53:00;94048.34;;;15.70;58.49
8298;BME280;4187;42.778;23.242;2023-02-26T06:55:28;94000.06;;;15.73;58.18
8298;BME280;4187;42.778;23.242;2023-02-26T06:57:56;93988.38;;;15.74;58.30
8298;BME280;4187;42.778;23.242;2023-02-26T07:00:23;94012.13;;;15.76;57.84
8298;BME280;4187;42.778;23.242;2023-02-26T07:02:51;93991.44;;;15.78;57.80
8298;BME280;4187;42.778;23.242;2023-02-26T07:05:18;94010.84;;;15.85;57.03
8298;BME280;4187;42.778;23.242;2023-02-26T07:07:45;94002.09;;;15.78;57.35
8298;BME280;4187;42.778;23.242;2023-02-26T07:10:12;94014.56;;;15.84;56.98
8298;BME280;4187;42.778;23.242;2023-02-26T07:12:40;94002.69;;;15.86;57.15
8298;BME280;4187;42.778;23.242;2023-02-26T07:15:08;94009.63;;;15.87;57.10
8298;BME280;4187;42.778;23.242;2023-02-26T07:17:34;94053.63;;;15.90;56.92
8298;BME280;4187;42.778;23.242;2023-02-26T07:20:02;93973.44;;;15.80;57.40
8298;BME280;4187;42.778;23.242;2023-02-26T07:22:35;93983.88;;;15.81;57.27
8298;BME280;4187;42.778;23.242;2023-02-26T07:25:02;93975.06;;;15.81;57.49
8298;BME280;4187;42.778;23.242;2023-02-26T07:27:29;94017.38;;;15.95;57.75
8298;BME280;4187;42.778;23.242;2023-02-26T07:29:59;94003.69;;;15.92;57.74
8298;BME280;4187;42.778;23.242;2023-02-26T07:32:26;94023.75;;;15.94;57.83
8298;BME280;4187;42.778;23.242;2023-02-26T07:34:53;93985.69;;;15.94;57.51
8298;BME280;4187;42.778;23.242;2023-02-26T07:37:20;93992.66;;;15.95;57.98
8298;BME280;4187;42.778;23.242;2023-02-26T07:39:47;94019.84;;;15.97;58.75
8298;BME280;4187;42.778;23.242;2023-02-26T07:42:14;93980.97;;;15.96;58.47
8298;BME280;4187;42.778;23.242;2023-02-26T07:44:41;94013.28;;;15.99;58.68
8298;BME280;4187;42.778;23.242;2023-02-26T07:47:09;93974.44;;;15.92;58.30
8298;BME280;4187;42.778;23.242;2023-02-26T07:49:36;93970.72;;;15.93;59.04
8298;BME280;4187;42.778;23.242;2023-02-26T07:52:04;93999.56;;;16.02;58.46
8298;BME280;4187;42.778;23.242;2023-02-26T07:54:32;93985.00;;;16.11;58.04
8298;BME280;4187;42.778;23.242;2023-02-26T07:56:59;93990.72;;;16.15;58.72
8298;BME280;4187;42.778;23.242;2023-02-26T07:59:26;93997.88;;;16.14;57.33
8298;BME280;4187;42.778;23.242;2023-02-26T08:01:53;94006.88;;;16.20;58.59
8298;BME280;4187;42.778;23.242;2023-02-26T08:04:21;94047.63;;;16.27;57.28
8298;BME280;4187;42.778;23.242;2023-02-26T08:06:48;94012.38;;;16.32;56.83
8298;BME280;4187;42.778;23.242;2023-02-26T08:09:15;94006.84;;;16.33;56.98
8298;BME280;4187;42.778;23.242;2023-02-26T08:11:42;94031.19;;;16.43;56.11
8298;BME280;4187;42.778;23.242;2023-02-26T08:14:10;93998.59;;;16.54;55.31
8298;BME280;4187;42.778;23.242;2023-02-26T08:16:37;94042.81;;;16.62;56.20
8298;BME280;4187;42.778;23.242;2023-02-26T08:19:05;94049.56;;;16.64;55.58
8298;BME280;4187;42.778;23.242;2023-02-26T08:21:33;93996.75;;;16.55;55.49
8298;BME280;4187;42.778;23.242;2023-02-26T08:24:00;94033.72;;;16.76;55.42
8298;BME280;4187;42.778;23.242;2023-02-26T08:26:27;94035.97;;;16.79;55.24
8298;BME280;4187;42.778;23.242;2023-02-26T08:28:54;94038.59;;;16.86;55.94
8298;BME280;4187;42.778;23.242;2023-02-26T08:31:21;93944.09;;;16.50;55.72
8298;BME280;4187;42.778;23.242;2023-02-26T08:33:47;94037.50;;;17.00;53.39
8298;BME280;4187;42.778;23.242;2023-02-26T08:36:14;94010.06;;;16.93;54.17
8298;BME280;4187;42.778;23.242;2023-02-26T08:38:43;94050.75;;;17.13;53.06
8298;BME280;4187;42.778;23.242;2023-02-26T08:41:09;94033.25;;;17.23;53.81
8298;BME280;4187;42.778;23.242;2023-02-26T08:43:36;94041.97;;;17.37;52.96
8298;BME280;4187;42.778;23.242;2023-02-26T08:46:04;94033.72;;;17.45;52.53
8298;BME280;4187;42.778;23.242;2023-02-26T08:48:31;94043.13;;;17.54;51.64
8298;BME280;4187;42.778;23.242;2023-02-26T08:50:58;94019.78;;;17.43;51.39
8298;BME280;4187;42.778;23.242;2023-02-26T08:53:25;94055.81;;;17.59;50.32
8298;BME280;4187;42.778;23.242;2023-02-26T08:55:53;94042.03;;;17.62;50.19
8298;BME280;4187;42.778;23.242;2023-02-26T08:58:20;94055.28;;;17.68;50.49
8298;BME280;4187;42.778;23.242;2023-02-26T09:00:47;94058.19;;;17.67;50.81
8298;BME280;4187;42.778;23.242;2023-02-26T09:03:14;94054.72;;;17.66;48.80
8298;BME280;4187;42.778;23.242;2023-02-26T09:05:41;94064.63;;;17.59;48.48
8298;BME280;4187;42.778;23.242;2023-02-26T09:08:08;94044.16;;;17.53;49.12
8298;BME280;4187;42.778;23.242;2023-02-26T09:10:36;94063.81;;;17.52;48.70
8298;BME280;4187;42.778;23.242;2023-02-26T09:13:04;94040.81;;;17.58;49.69
8298;BME280;4187;42.778;23.242;2023-02-26T09:15:31;94035.44;;;17.64;49.10
8298;BME280;4187;42.778;23.242;2023-02-26T09:17:58;94029.50;;;17.62;49.67
8298;BME280;4187;42.778;23.242;2023-02-26T09:20:25;94038.44;;;17.74;48.22
8298;BME280;4187;42.778;23.242;2023-02-26T09:22:53;94026.09;;;17.98;48.82
8298;BME280;4187;42.778;23.242;2023-02-26T09:25:19;94024.72;;;18.14;48.78
8298;BME280;4187;42.778;23.242;2023-02-26T09:27:46;94030.66;;;18.34;47.70
8298;BME280;4187;42.778;23.242;2023-02-26T09:30:15;94039.88;;;18.38;47.34
8298;BME280;4187;42.778;23.242;2023-02-26T09:32:42;94011.44;;;18.25;46.93
8298;BME280;4187;42.778;23.242;2023-02-26T09:35:09;94018.41;;;18.44;45.26
8298;BME280;4187;42.778;23.242;2023-02-26T09:37:37;94048.34;;;18.71;44.14
8298;BME280;4187;42.778;23.242;2023-02-26T09:40:05;94020.75;;;18.59;44.33
8298;BME280;4187;42.778;23.242;2023-02-26T09:42:52;94034.47;;;18.92;44.25
8298;BME280;4187;42.778;23.242;2023-02-26T09:45:29;94045.25;;;19.04;42.38
8298;BME280;4187;42.778;23.242;2023-02-26T09:47:58;94026.63;;;18.97;43.34
8298;BME280;4187;42.778;23.242;2023-02-26T09:50:36;94055.56;;;19.00;43.11
8298;BME280;4187;42.778;23.242;2023-02-26T09:53:10;94054.78;;;19.11;43.08
8298;BME280;4187;42.778;23.242;2023-02-26T09:55:40;94027.06;;;19.24;42.17
8298;BME280;4187;42.778;23.242;2023-02-26T09:58:13;94037.09;;;19.29;42.41
8298;BME280;4187;42.778;23.242;2023-02-26T10:00:48;94023.38;;;19.37;42.65
8298;BME280;4187;42.778;23.242;2023-02-26T10:03:26;94076.22;;;19.41;42.70
8298;BME280;4187;42.778;23.242;2023-02-26T10:06:12;94010.47;;;19.34;42.95
8298;BME280;4187;42.778;23.242;2023-02-26T10:08:46;94059.19;;;19.36;42.16
8298;BME280;4187;42.778;23.242;2023-02-26T10:11:20;94109.75;;;19.26;42.28
8298;BME280;4187;42.778;23.242;2023-02-26T10:13:54;94026.84;;;19.26;44.07
8298;BME280;4187;42.778;23.242;2023-02-26T10:16:27;94027.09;;;19.36;43.04
8298;BME280;4187;42.778;23.242;2023-02-26T10:18:59;94043.13;;;19.24;40.81
8298;BME280;4187;42.778;23.242;2023-02-26T10:21:31;94004.84;;;19.24;42.38
8298;BME280;4187;42.778;23.242;2023-02-26T10:24:03;94015.91;;;19.27;42.72
8298;BME280;4187;42.778;23.242;2023-02-26T10:26:36;94032.81;;;19.09;43.43
8298;BME280;4187;42.778;23.242;2023-02-26T10:29:13;94002.78;;;18.96;43.38
8298;BME280;4187;42.778;23.242;2023-02-26T10:31:55;93996.34;;;18.85;43.28
8298;BME280;4187;42.778;23.242;2023-02-26T10:34:28;94001.56;;;18.80;43.80
8298;BME280;4187;42.778;23.242;2023-02-26T10:37:03;93971.34;;;18.80;44.71
8298;BME280;4187;42.778;23.242;2023-02-26T10:39:40;93972.84;;;19.05;45.21
8298;BME280;4187;42.778;23.242;2023-02-26T10:42:12;93941.41;;;19.01;45.63
8298;BME280;4187;42.778;23.242;2023-02-26T10:44:48;93973.50;;;19.01;44.51
8298;BME280;4187;42.778;23.242;2023-02-26T10:47:23;93962.59;;;19.02;45.68
8298;BME280;4187;42.778;23.242;2023-02-26T10:49:55;93968.03;;;18.66;45.67
8298;BME280;4187;42.778;23.242;2023-02-26T10:52:27;93972.28;;;18.85;44.59
8298;BME280;4187;42.778;23.242;2023-02-26T10:55:06;93983.09;;;18.79;45.92
8298;BME280;4187;42.778;23.242;2023-02-26T10:57:41;93960.50;;;18.75;46.92
8298;BME280;4187;42.778;23.242;2023-02-26T11:00:15;93963.25;;;18.68;46.44
8298;BME280;4187;42.778;23.242;2023-02-26T11:02:45;93942.75;;;18.80;46.49
8298;BME280;4187;42.778;23.242;2023-02-26T11:05:16;93950.72;;;18.69;47.13
8298;BME280;4187;42.778;23.242;2023-02-26T11:07:46;93937.69;;;18.61;47.48
8298;BME280;4187;42.778;23.242;2023-02-26T11:10:17;93965.66;;;18.40;47.35
8298;BME280;4187;42.778;23.242;2023-02-26T11:12:45;93966.28;;;18.24;47.80
8298;BME280;4187;42.778;23.242;2023-02-26T11:15:13;93916.88;;;17.97;48.25
8298;BME280;4187;42.778;23.242;2023-02-26T11:17:40;93992.34;;;18.04;47.72
8298;BME280;4187;42.778;23.242;2023-02-26T11:20:17;93969.97;;;17.86;48.57
8298;BME280;4187;42.778;23.242;2023-02-26T11:22:47;93921.47;;;17.71;48.99
8298;BME280;4187;42.778;23.242;2023-02-26T11:25:18;93917.22;;;17.64;48.79
8298;BME280;4187;42.778;23.242;2023-02-26T11:27:47;93933.78;;;17.72;49.87
8298;BME280;4187;42.778;23.242;2023-02-26T11:30:16;93930.53;;;17.70;50.71
8298;BME280;4187;42.778;23.242;2023-02-26T11:32:44;93951.19;;;17.75;51.15
8298;BME280;4187;42.778;23.242;2023-02-26T11:35:15;93968.84;;;17.76;50.49
8298;BME280;4187;42.778;23.242;2023-02-26T11:37:47;93969.28;;;17.73;50.90
8298;BME280;4187;42.778;23.242;2023-02-26T11:40:16;93990.28;;;17.63;51.67
8298;BME280;4187;42.778;23.242;2023-02-26T11:42:48;93975.63;;;17.54;52.04
8298;BME280;4187;42.778;23.242;2023-02-26T11:45:17;93983.00;;;17.52;52.75
8298;BME280;4187;42.778;23.242;2023-02-26T11:47:45;93981.13;;;17.52;52.33
8298;BME280;4187;42.778;23.242;2023-02-26T11:50:17;93992.72;;;17.40;52.13
8298;BME280;4187;42.778;23.242;2023-02-26T11:52:49;94012.72;;;17.55;50.36
8298;BME280;4187;42.778;23.242;2023-02-26T11:55:21;94000.44;;;17.48;53.34
8298;BME280;4187;42.778;23.242;2023-02-26T11:57:53;94036.16;;;17.47;53.27
8298;BME280;4187;42.778;23.242;2023-02-26T12:00:23;94035.63;;;17.38;54.33
8298;BME280;4187;42.778;23.242;2023-02-26T12:02:57;94035.66;;;17.31;54.49
8298;BME280;4187;42.778;23.242;2023-02-26T12:05:27;94056.41;;;17.29;54.98
8298;BME280;4187;42.778;23.242;2023-02-26T12:07:53;94085.09;;;17.27;55.76
8298;BME280;4187;42.778;23.242;2023-02-26T12:10:24;94067.16;;;17.16;57.24
8298;BME280;4187;42.778;23.242;2023-02-26T12:13:06;94069.72;;;17.29;56.74
8298;BME280;4187;42.778;23.242;2023-02-26T12:15:40;94085.38;;;17.51;56.21
8298;BME280;4187;42.778;23.242;2023-02-26T12:18:31;94086.81;;;17.53;54.69
8298;BME280;4187;42.778;23.242;2023-02-26T12:21:16;94108.97;;;17.47;55.68
8298;BME280;4187;42.778;23.242;2023-02-26T12:24:10;94110.47;;;17.43;55.71
8298;BME280;4187;42.778;23.242;2023-02-26T12:26:44;94104.25;;;17.49;55.88
8298;BME280;4187;42.778;23.242;2023-02-26T12:29:35;94127.66;;;17.47;55.57
8298;BME280;4187;42.778;23.242;2023-02-26T12:32:20;94136.50;;;17.41;55.49
8298;BME280;4187;42.778;23.242;2023-02-26T12:35:24;94132.41;;;17.39;56.07
8298;BME280;4187;42.778;23.242;2023-02-26T12:38:15;94127.06;;;17.45;55.14
8298;BME280;4187;42.778;23.242;2023-02-26T12:43:49;94123.66;;;17.69;55.56
8298;BME280;4187;42.778;23.242;2023-02-26T12:46:25;94124.25;;;17.96;50.86
8298;BME280;4187;42.778;23.242;2023-02-26T12:49:19;94134.75;;;17.98;47.90
8298;BME280;4187;42.778;23.242;2023-02-26T12:52:06;94128.03;;;17.88;48.13
8298;BME280;4187;42.778;23.242;2023-02-26T12:54:51;94143.66;;;17.85;48.22
8298;BME280;4187;42.778;23.242;2023-02-26T12:57:49;94156.53;;;17.95;48.55
8298;BME280;4187;42.778;23.242;2023-02-26T13:00:37;94165.31;;;17.95;47.64
8298;BME280;4187;42.778;23.242;2023-02-26T13:03:35;94167.56;;;17.98;48.17
8298;BME280;4187;42.778;23.242;2023-02-26T13:06:23;94150.22;;;17.82;47.38
8298;BME280;4187;42.778;23.242;2023-02-26T13:08:59;94131.22;;;17.72;47.64
8298;BME280;4187;42.778;23.242;2023-02-26T13:11:40;94146.84;;;17.69;48.24
8298;BME280;4187;42.778;23.242;2023-02-26T13:14:21;94120.06;;;17.51;48.27
8298;BME280;4187;42.778;23.242;2023-02-26T13:16:53;94160.25;;;17.62;49.58
8298;BME280;4187;42.778;23.242;2023-02-26T13:19:30;94152.84;;;17.58;50.42
8298;BME280;4187;42.778;23.242;2023-02-26T13:22:04;94155.16;;;17.41;50.84
8298;BME280;4187;42.778;23.242;2023-02-26T13:24:35;94162.31;;;17.47;52.02
8298;BME280;4187;42.778;23.242;2023-02-26T13:27:07;94151.88;;;17.46;52.22
8298;BME280;4187;42.778;23.242;2023-02-26T13:29:39;94145.97;;;17.44;53.11
8298;BME280;4187;42.778;23.242;2023-02-26T13:32:11;94116.50;;;17.25;52.94
8298;BME280;4187;42.778;23.242;2023-02-26T13:34:42;94142.63;;;17.48;53.27
8298;BME280;4187;42.778;23.242;2023-02-26T13:37:21;94129.91;;;17.50;51.44
8298;BME280;4187;42.778;23.242;2023-02-26T13:39:57;94123.16;;;17.54;51.43